createdAt,value
2022-10-01T00:10:31.540Z,99107.25
2022-10-01T00:13:06.909Z,99119.13
2022-10-01T00:19:15.183Z,99118.31
2022-10-01T00:23:02.614Z,99127.00
2022-10-01T00:25:29.383Z,99124.63
2022-10-01T00:28:12.429Z,99124.63
2022-10-01T00:31:40.752Z,99118.69
2022-10-01T00:38:29.308Z,99136.50
2022-10-01T00:41:18.211Z,99133.28
2022-10-01T00:44:27.209Z,99137.25
2022-10-01T00:46:56.059Z,99133.69
2022-10-01T00:49:26.584Z,99135.66
2022-10-01T00:56:19.856Z,99151.50
2022-10-01T00:59:07.585Z,99143.56
2022-10-01T01:09:57.006Z,99148.28
2022-10-01T01:20:10.193Z,99167.25
2022-10-01T01:22:43.537Z,99176.38
2022-10-01T01:25:21.050Z,99179.13
2022-10-01T01:28:12.868Z,99184.66
2022-10-01T01:30:41.525Z,99170.44
2022-10-01T01:33:14.790Z,99184.66
2022-10-01T01:36:00.055Z,99179.13
2022-10-01T01:38:31.287Z,99187.03
2022-10-01T01:41:11.678Z,99182.69
2022-10-01T01:43:42.940Z,99188.59
2022-10-01T01:50:28.637Z,99194.53
2022-10-01T01:53:15.844Z,99203.22
2022-10-01T01:56:02.926Z,99216.28
2022-10-01T01:58:51.325Z,99209.16
2022-10-01T02:01:43.603Z,99211.94
2022-10-01T02:04:36.377Z,99209.16
2022-10-01T02:07:32.347Z,99215.09
2022-10-01T02:22:03.605Z,99218.63
2022-10-01T02:24:48.394Z,99226.16
2022-10-01T02:27:40.881Z,99237.22
2022-10-01T02:30:09.722Z,99236.81
2022-10-01T02:36:22.285Z,99249.84
2022-10-01T02:38:50.850Z,99251.00
2022-10-01T02:41:25.114Z,99256.53
2022-10-01T02:44:02.253Z,99254.97
2022-10-01T02:46:48.991Z,99255.78
2022-10-01T03:37:07.723Z,99286.59
2022-10-01T03:39:54.762Z,99273.53
2022-10-01T03:46:59.911Z,99297.69
2022-10-01T03:49:29.384Z,99290.97
2022-10-01T03:51:57.049Z,99294.56
2022-10-01T03:54:23.803Z,99290.63
2022-10-01T03:56:50.773Z,99310.41
2022-10-01T03:59:17.589Z,99304.88
2022-10-01T04:01:44.359Z,99315.97
2022-10-01T04:12:09.165Z,99320.59
2022-10-01T04:18:17.492Z,99325.34
2022-10-01T04:40:16.457Z,99348.53
2022-10-01T04:42:43.758Z,99356.41
2022-10-01T04:45:11.264Z,99365.91
2022-10-01T04:51:48.403Z,99374.56
2022-10-01T04:54:35.487Z,99374.94
2022-10-01T04:57:22.528Z,99379.66
2022-10-01T05:04:27.501Z,99388.31
2022-10-01T05:07:14.649Z,99388.31
2022-10-01T05:10:01.921Z,99385.13
2022-10-01T05:16:39.608Z,99390.25
2022-10-01T05:19:07.726Z,99393.81
2022-10-01T05:25:47.050Z,99401.34
2022-10-01T05:35:56.338Z,99410.38
2022-10-01T05:38:43.426Z,99415.13
2022-10-01T05:48:44.512Z,99429.75
2022-10-01T05:51:16.282Z,99426.19
2022-10-01T05:53:46.058Z,99432.53
2022-10-01T05:56:16.306Z,99428.16
2022-10-01T05:58:43.011Z,99439.22
2022-10-01T06:01:09.791Z,99438.06
2022-10-01T06:03:36.576Z,99439.66
2022-10-01T06:06:05.538Z,99433.34
2022-10-01T06:08:35.310Z,99429.38
2022-10-01T06:14:45.244Z,99431.78
2022-10-01T06:20:52.606Z,99447.63
2022-10-01T06:23:19.545Z,99447.63
2022-10-01T06:25:46.258Z,99455.94
2022-10-01T06:28:14.894Z,99465.03
2022-10-01T06:38:33.365Z,99477.69
2022-10-01T06:41:20.450Z,99484.03
2022-10-01T06:44:07.670Z,99484.44
2022-10-01T06:46:54.957Z,99483.28
2022-10-01T06:49:44.555Z,99492.00
2022-10-01T06:52:49.605Z,99486.88
2022-10-01T06:55:37.813Z,99493.28
2022-10-01T06:58:28.086Z,99495.28
2022-10-01T07:01:17.053Z,99498.47
2022-10-01T07:07:49.211Z,99500.50
2022-10-01T07:10:37.885Z,99505.28
2022-10-01T07:13:24.946Z,99493.00
2022-10-01T07:16:11.994Z,99503.34
2022-10-01T07:27:07.396Z,99520.88
2022-10-01T07:29:34.368Z,99523.25
2022-10-01T07:32:02.065Z,99528.84
2022-10-01T07:41:59.659Z,99547.59
2022-10-01T08:01:14.359Z,99562.50
2022-10-01T08:03:41.047Z,99542.75
2022-10-01T08:10:13.796Z,99564.31
2022-10-01T08:12:42.791Z,99563.59
2022-10-01T08:18:59.908Z,99575.59
2022-10-01T08:21:29.612Z,99560.19
2022-10-01T08:23:56.273Z,99572.47
2022-10-01T08:26:22.975Z,99593.56
2022-10-01T08:33:07.456Z,99587.38
2022-10-01T08:39:24.683Z,99603.13
2022-10-01T08:42:08.604Z,99608.00
2022-10-01T08:44:43.997Z,99606.47
2022-10-01T08:47:19.058Z,99620.81
2022-10-01T08:57:53.308Z,99629.00
2022-10-01T09:00:44.714Z,99632.59
2022-10-01T09:03:32.656Z,99648.50
2022-10-01T09:06:23.241Z,99648.88
2022-10-01T09:09:36.449Z,99651.22
2022-10-01T09:16:36.428Z,99668.75
2022-10-01T09:31:58.827Z,99656.03
2022-10-01T09:34:47.037Z,99656.47
2022-10-01T09:37:52.006Z,99656.47
2022-10-01T09:40:49.763Z,99666.81
2022-10-01T09:43:31.825Z,99653.72
2022-10-01T09:57:47.692Z,99664.16
2022-10-01T10:00:37.848Z,99670.91
2022-10-01T10:03:28.940Z,99664.22
2022-10-01T10:06:16.118Z,99675.75
2022-10-01T10:09:03.237Z,99664.63
2022-10-01T10:15:57.591Z,99700.25
2022-10-01T10:18:52.295Z,99695.50
2022-10-01T10:21:52.056Z,99700.94
2022-10-01T10:24:39.219Z,99711.56
2022-10-01T10:27:29.234Z,99720.06
2022-10-01T10:30:17.891Z,99718.06
2022-10-01T10:37:07.574Z,99727.84
2022-10-01T10:39:40.696Z,99737.47
2022-10-01T10:42:08.517Z,99734.56
2022-10-01T10:44:39.820Z,99743.09
2022-10-01T10:47:11.396Z,99742.53
2022-10-01T10:49:47.985Z,99747.06
2022-10-01T10:57:29.020Z,99757.88
2022-10-01T11:00:19.559Z,99756.19
2022-10-01T11:03:06.849Z,99758.25
2022-10-01T11:05:56.351Z,99756.88
2022-10-01T11:08:44.263Z,99768.03
2022-10-01T11:11:44.008Z,99758.44
2022-10-01T11:14:49.629Z,99778.44
2022-10-01T11:18:13.614Z,99792.09
2022-10-01T11:21:39.262Z,99800.56
2022-10-01T11:24:33.249Z,99796.25
2022-10-01T11:27:36.365Z,99791.88
2022-10-01T11:34:17.144Z,99805.47
2022-10-01T11:37:21.226Z,99798.34
2022-10-01T11:39:54.868Z,99802.69
2022-10-01T11:46:29.647Z,99801.88
2022-10-01T11:49:14.717Z,99801.88
2022-10-01T11:52:41.098Z,99803.44
2022-10-01T11:56:12.720Z,99807.81
2022-10-01T11:59:24.383Z,99813.75
2022-10-01T12:02:45.461Z,99814.59
2022-10-01T12:05:18.642Z,99819.78
2022-10-01T12:11:39.945Z,99808.19
2022-10-01T12:18:30.937Z,99819.25
2022-10-01T12:24:45.481Z,99818.28
2022-10-01T12:27:50.115Z,99828.31
2022-10-01T12:30:20.726Z,99830.72
2022-10-01T12:33:39.559Z,99833.09
2022-10-01T12:36:29.974Z,99828.75
2022-10-01T12:39:29.257Z,99835.84
2022-10-01T12:50:42.488Z,99864.59
2022-10-01T12:53:18.369Z,99855.84
2022-10-01T12:56:04.819Z,99867.00
2022-10-01T12:58:51.307Z,99874.97
2022-10-01T13:09:48.623Z,99900.16
2022-10-01T13:16:39.863Z,99893.97
2022-10-01T13:24:19.086Z,99885.75
2022-10-01T13:26:57.869Z,99892.06
2022-10-01T13:29:39.245Z,99883.97
2022-10-01T13:36:01.221Z,99893.56
2022-10-01T13:38:29.400Z,99889.78
2022-10-01T13:41:15.631Z,99891.47
2022-10-01T13:43:59.219Z,99886.00
2022-10-01T13:47:19.743Z,99897.91
2022-10-01T13:50:50.812Z,99895.13
